Time;durP1;ratioP1;P1;durP2;ratioP2;P2;SDS_P1;SDS_P2;PMS_P1;PMS_P2;Temp;Humidity;BMP_temperature;BMP_pressure;BME280_temperature;BME280_humidity;BME280_pressure;Samples;Min_cycle;Max_cycle;Signal;HPM_P1;HPM_P2
2021/11/24 00:01:25;;;;;;;14.00;6.97;;;-1.40;99.90;-2.30;97694.00;;;;5033795;28;20805;-74
2021/11/24 00:03:55;;;;;;;8.63;7.70;;;-1.40;99.90;-2.30;97681.00;;;;5034892;28;20518;-75
2021/11/24 00:06:24;;;;;;;11.50;7.37;;;-1.50;99.90;-2.10;97686.00;;;;5044684;28;20973;-75
2021/11/24 00:08:52;;;;;;;10.00;6.73;;;-1.40;99.90;-2.00;97686.00;;;;5044768;28;20471;-74
2021/11/24 00:11:21;;;;;;;10.63;6.77;;;-1.40;99.90;-2.00;97682.00;;;;5045281;28;20459;-74
2021/11/24 00:13:50;;;;;;;9.07;6.97;;;-1.40;99.90;-2.00;97688.00;;;;5045193;28;20943;-75
2021/11/24 00:16:19;;;;;;;10.00;6.63;;;-1.40;99.90;-2.00;97676.00;;;;5045807;28;20439;-74
2021/11/24 00:18:48;;;;;;;10.87;6.27;;;-1.30;99.90;-2.00;97665.00;;;;5044897;28;20447;-76
2021/11/24 00:21:19;;;;;;;8.47;6.63;;;-1.30;99.90;-2.10;97680.00;;;;5042161;28;20520;-74
2021/11/24 00:23:48;;;;;;;10.03;7.00;;;-1.40;99.90;-2.40;97670.00;;;;5035138;28;20700;-74
2021/11/24 00:26:17;;;;;;;8.23;6.47;;;-1.40;99.90;-2.40;97669.00;;;;5044959;28;20957;-75
2021/11/24 00:28:45;;;;;;;8.00;6.43;;;-1.50;99.90;-2.40;97660.00;;;;5043926;28;20439;-74
2021/11/24 00:31:14;;;;;;;8.67;7.03;;;-1.50;99.90;-2.60;97668.00;;;;5038597;28;20455;-74
2021/11/24 00:33:42;;;;;;;11.70;7.77;;;-1.50;99.90;-2.30;97669.00;;;;5033973;28;20431;-75
2021/11/24 00:36:11;;;;;;;10.17;6.60;;;-1.50;99.90;-2.20;97663.00;;;;5045518;28;20427;-74
2021/11/24 00:38:41;;;;;;;8.47;6.10;;;-1.50;99.90;-2.20;97673.00;;;;5044479;28;20855;-75
2021/11/24 00:41:10;;;;;;;8.37;7.33;;;-1.50;99.90;-2.20;97662.00;;;;5044618;28;20550;-74
2021/11/24 00:43:39;;;;;;;9.33;6.50;;;-1.50;99.90;-2.20;97674.00;;;;5044826;28;20435;-75
2021/11/24 00:46:08;;;;;;;10.57;6.73;;;-1.50;99.90;-2.30;97663.00;;;;5044776;28;20939;-75
2021/11/24 00:48:37;;;;;;;12.70;5.60;;;-1.50;99.90;-2.50;97663.00;;;;5045183;28;20823;-76
2021/11/24 00:51:06;;;;;;;9.50;7.67;;;-1.60;99.90;-2.70;97654.00;;;;5045148;28;20550;-74
2021/11/24 00:53:35;;;;;;;8.20;6.97;;;-1.70;99.90;-2.60;97657.00;;;;5044085;28;21250;-74
2021/11/24 00:56:05;;;;;;;10.13;7.03;;;-1.70;99.90;-2.70;97649.00;;;;5043190;28;20453;-74
2021/11/24 00:58:33;;;;;;;9.30;6.20;;;-1.70;99.90;-2.70;97662.00;;;;5044595;28;20459;-74
2021/11/24 01:01:02;;;;;;;10.13;5.27;;;-1.70;99.90;-2.70;97657.00;;;;5040701;28;20441;-74
2021/11/24 01:03:31;;;;;;;8.50;6.03;;;-1.80;99.90;-2.70;97644.00;;;;5044554;28;20996;-76
2021/11/24 01:06:00;;;;;;;9.37;7.23;;;-1.80;99.90;-2.80;97648.00;;;;5046919;28;20485;-74
2021/11/24 01:08:28;;;;;;;8.60;6.57;;;-1.90;99.90;-2.60;97649.00;;;;5048055;28;20479;-75
2021/11/24 01:10:57;;;;;;;8.53;6.57;;;-1.90;99.90;-2.90;97653.00;;;;5047976;28;20792;-74
2021/11/24 01:13:45;;;;;;;9.13;7.57;;;-1.90;99.90;-2.90;97654.00;;;;5048500;28;20434;-72
2021/11/24 01:16:15;;;;;;;9.03;5.83;;;-2.00;99.90;-3.00;97654.00;;;;5048873;28;20787;-72
2021/11/24 01:18:44;;;;;;;8.70;7.20;;;-2.00;99.90;-2.80;97638.00;;;;5048210;28;20542;-71
2021/11/24 01:21:12;;;;;;;9.83;6.77;;;-2.00;99.90;-2.70;97636.00;;;;5048302;28;20493;-72
2021/11/24 01:23:41;;;;;;;7.43;5.87;;;-2.00;99.90;-2.60;97657.00;;;;5048099;28;20435;-72
2021/11/24 01:26:10;;;;;;;9.03;5.67;;;-2.00;99.90;-2.70;97647.00;;;;5047644;28;20557;-72
2021/11/24 01:28:39;;;;;;;8.73;5.80;;;-1.90;99.90;-2.70;97636.00;;;;5037163;28;20538;-73
2021/11/24 01:31:09;;;;;;;11.07;6.23;;;-1.90;99.90;-2.70;97640.00;;;;5047775;28;20463;-72
2021/11/24 01:33:38;;;;;;;9.33;6.73;;;-1.90;99.90;-2.80;97635.00;;;;5048088;28;20435;-72
2021/11/24 01:36:06;;;;;;;8.23;5.83;;;-1.90;99.90;-2.80;97626.00;;;;5048078;28;20427;-72
2021/11/24 01:38:35;;;;;;;7.37;5.97;;;-1.90;99.90;-2.80;97615.00;;;;5047651;28;20438;-72
2021/11/24 01:41:04;;;;;;;9.30;6.37;;;-2.00;99.90;-2.80;97627.00;;;;5044893;28;20877;-73
2021/11/24 01:43:33;;;;;;;9.77;6.27;;;-2.00;99.90;-2.90;97617.00;;;;5047551;28;20481;-72
2021/11/24 01:46:01;;;;;;;8.13;5.90;;;-2.00;99.90;-3.00;97616.00;;;;5047923;28;20475;-72
2021/11/24 01:48:31;;;;;;;7.80;6.50;;;-2.00;99.90;-3.40;97617.00;;;;5044719;28;20741;-73
2021/11/24 01:51:00;;;;;;;8.20;5.80;;;-2.10;99.90;-3.30;97616.00;;;;5038399;28;20709;-73
2021/11/24 01:53:30;;;;;;;7.60;5.90;;;-2.20;99.90;-3.10;97614.00;;;;5044973;28;20436;-72
2021/11/24 01:56:01;;;;;;;11.93;5.67;;;-2.20;99.90;-3.10;97624.00;;;;5034583;28;20435;-72
2021/11/24 01:58:30;;;;;;;9.20;5.70;;;-2.20;99.90;-3.10;97615.00;;;;5047813;28;20467;-73
2021/11/24 02:00:59;;;;;;;6.60;5.90;;;-2.30;99.90;-3.60;97610.00;;;;5034080;28;20498;-72
2021/11/24 02:03:28;;;;;;;8.63;6.13;;;-2.30;99.90;-3.40;97604.00;;;;5047407;28;20463;-72
2021/11/24 02:05:58;;;;;;;7.73;5.00;;;-2.40;99.90;-3.20;97608.00;;;;5046937;28;20471;-72
2021/11/24 02:08:27;;;;;;;7.73;6.30;;;-2.40;99.90;-3.10;97614.00;;;;5047215;28;20443;-72
2021/11/24 02:10:58;;;;;;;7.30;4.87;;;-2.40;99.90;-3.00;97608.00;;;;5047129;28;20447;-72
2021/11/24 02:13:27;;;;;;;8.27;5.90;;;-2.40;99.90;-3.20;97598.00;;;;5046878;28;20450;-70
2021/11/24 02:15:55;;;;;;;9.00;5.50;;;-2.30;99.90;-3.30;97604.00;;;;5046844;28;20954;-72
2021/11/24 02:18:42;;;;;;;7.63;6.03;;;-2.30;99.90;-3.50;97594.00;;;;5047465;28;20434;-73
2021/11/24 02:21:13;;;;;;;7.83;4.97;;;-2.40;99.90;-3.60;97585.00;;;;5046511;28;20463;-71
2021/11/24 02:23:41;;;;;;;8.53;5.10;;;-2.50;99.90;-3.40;97592.00;;;;5046308;28;20989;-71
2021/11/24 02:26:10;;;;;;;9.60;4.77;;;-2.50;99.90;-3.30;97586.00;;;;5046821;28;20483;-72
2021/11/24 02:28:38;;;;;;;7.17;5.70;;;-2.50;99.90;-3.30;97587.00;;;;5047685;28;20489;-71
2021/11/24 02:31:07;;;;;;;7.40;5.37;;;-2.50;99.90;-3.20;97585.00;;;;5046968;28;20582;-73
2021/11/24 02:33:36;;;;;;;8.97;6.20;;;-2.40;99.90;-3.10;97596.00;;;;5046956;28;20534;-72
2021/11/24 02:36:05;;;;;;;11.17;5.73;;;-2.40;99.90;-3.10;97583.00;;;;5046528;28;20443;-72
2021/11/24 02:38:35;;;;;;;6.30;5.43;;;-2.40;99.90;-3.20;97579.00;;;;5047338;28;20938;-71
2021/11/24 02:41:04;;;;;;;6.43;4.43;;;-2.40;99.90;-3.20;97576.00;;;;5038772;28;20448;-70
2021/11/24 02:43:32;;;;;;;5.97;4.77;;;-2.40;99.90;-3.20;97581.00;;;;5034250;28;20442;-71
2021/11/24 02:46:01;;;;;;;8.97;5.47;;;-2.30;99.90;-3.20;97587.00;;;;5046278;28;21000;-72
2021/11/24 02:48:30;;;;;;;7.50;5.63;;;-2.40;99.90;-3.50;97585.00;;;;5046016;28;20790;-72
2021/11/24 02:50:58;;;;;;;8.33;5.10;;;-2.40;99.90;-3.60;97576.00;;;;5045192;28;20891;-71
2021/11/24 02:53:28;;;;;;;6.53;5.27;;;-2.50;99.90;-3.50;97583.00;;;;5046517;28;20435;-73
2021/11/24 02:55:58;;;;;;;5.07;4.33;;;-2.60;99.90;-3.60;97577.00;;;;5045586;28;20442;-71
2021/11/24 02:58:27;;;;;;;6.40;4.77;;;-2.60;99.90;-3.90;97574.00;;;;5046200;28;21014;-72
2021/11/24 03:01:00;;;;;;;7.30;5.87;;;-2.70;99.90;-3.80;97566.00;;;;5035582;28;20497;-70
2021/11/24 03:03:29;;;;;;;8.80;6.10;;;-2.70;99.90;-3.70;97561.00;;;;5046440;28;20550;-71
2021/11/24 03:05:57;;;;;;;6.10;5.00;;;-2.70;99.90;-3.70;97575.00;;;;5045459;28;21051;-71
2021/11/24 03:08:26;;;;;;;7.27;4.40;;;-2.70;99.90;-3.70;97564.00;;;;5045620;28;20438;-73
2021/11/24 03:10:56;;;;;;;6.10;5.37;;;-2.70;99.90;-3.60;97567.00;;;;5045875;28;20851;-71
2021/11/24 03:13:25;;;;;;;7.73;5.07;;;-2.70;99.90;-3.50;97566.00;;;;5046523;28;20431;-72
2021/11/24 03:15:54;;;;;;;6.53;5.13;;;-2.70;99.90;-3.40;97563.00;;;;5046718;28;20932;-70
2021/11/24 03:18:40;;;;;;;5.20;4.07;;;-2.60;99.90;-3.30;97558.00;;;;5046044;28;20442;-73
2021/11/24 03:21:09;;;;;;;7.80;5.50;;;-2.60;99.90;-3.20;97560.00;;;;5045930;28;20459;-71
2021/11/24 03:23:38;;;;;;;7.23;5.23;;;-2.50;99.90;-3.20;97562.00;;;;5044869;28;20439;-72
2021/11/24 03:26:08;;;;;;;9.67;5.47;;;-2.50;99.90;-3.30;97564.00;;;;5046267;28;20479;-72
2021/11/24 03:28:37;;;;;;;4.17;3.77;;;-2.50;99.90;-3.40;97571.00;;;;5045548;28;20840;-72
2021/11/24 03:31:05;;;;;;;6.50;5.37;;;-2.50;99.90;-3.50;97552.00;;;;5045561;28;20839;-71
2021/11/24 03:33:34;;;;;;;6.77;4.60;;;-2.60;99.90;-4.00;97549.00;;;;5046040;28;20600;-72
2021/11/24 03:36:03;;;;;;;8.80;3.80;;;-2.70;99.90;-4.30;97551.00;;;;5045381;28;20435;-71
2021/11/24 03:38:32;;;;;;;6.50;4.13;;;-2.80;99.90;-4.20;97556.00;;;;5045745;28;20435;-72
2021/11/24 03:41:01;;;;;;;8.07;5.20;;;-2.90;99.90;-4.10;97544.00;;;;5045058;28;21016;-72
2021/11/24 03:43:31;;;;;;;7.73;5.33;;;-2.90;99.90;-3.90;97548.00;;;;5045921;28;21210;-71
2021/11/24 03:45:59;;;;;;;7.53;4.63;;;-3.00;99.90;-3.80;97540.00;;;;5045776;28;20898;-71
2021/11/24 03:48:28;;;;;;;6.03;4.37;;;-3.00;99.90;-3.80;97548.00;;;;5045149;28;20458;-71
2021/11/24 03:50:57;;;;;;;5.67;4.90;;;-3.00;99.90;-3.80;97549.00;;;;5045311;28;20442;-71
2021/11/24 03:53:26;;;;;;;6.27;4.60;;;-3.00;99.90;-3.80;97545.00;;;;5045606;28;20787;-70
2021/11/24 03:55:54;;;;;;;5.67;3.30;;;-3.00;99.90;-3.70;97541.00;;;;5043580;28;20482;-71
2021/11/24 03:58:23;;;;;;;10.40;4.57;;;-3.00;99.90;-4.10;97541.00;;;;5044701;28;20447;-71
2021/11/24 04:00:53;;;;;;;4.87;4.37;;;-3.00;99.90;-4.00;97534.00;;;;5031740;28;20676;-71
2021/11/24 04:03:22;;;;;;;7.43;4.63;;;-3.00;99.90;-3.90;97540.00;;;;5045484;28;20525;-70
2021/11/24 04:05:53;;;;;;;5.60;4.87;;;-3.00;99.90;-4.10;97532.00;;;;5045042;28;20471;-70
2021/11/24 04:08:40;;;;;;;5.80;3.53;;;-3.00;99.90;-4.30;97533.00;;;;5045290;28;20455;-72
2021/11/24 04:11:08;;;;;;;4.73;4.13;;;-3.10;99.90;-4.50;97527.00;;;;5041873;28;20466;-72
2021/11/24 04:13:37;;;;;;;4.97;3.27;;;-3.20;99.90;-4.50;97516.00;;;;5044912;28;21013;-72
2021/11/24 04:16:07;;;;;;;5.70;4.03;;;-3.30;99.90;-4.30;97518.00;;;;5036947;28;20531;-72
2021/11/24 04:18:36;;;;;;;5.20;3.87;;;-3.30;99.90;-4.20;97522.00;;;;5045136;28;20836;-72
2021/11/24 04:21:06;;;;;;;5.30;3.77;;;-3.30;99.90;-4.20;97521.00;;;;5045446;28;20461;-71
2021/11/24 04:23:35;;;;;;;6.63;4.60;;;-3.30;99.90;-4.20;97524.00;;;;5041808;28;20447;-72
2021/11/24 04:26:03;;;;;;;3.70;3.10;;;-3.20;99.90;-4.10;97524.00;;;;5045169;28;20474;-73
2021/11/24 04:28:33;;;;;;;3.90;3.50;;;-3.20;99.90;-4.10;97521.00;;;;5045097;28;20443;-72
2021/11/24 04:31:05;;;;;;;5.20;3.90;;;-3.20;99.90;-4.00;97531.00;;;;5045072;28;20546;-73
2021/11/24 04:33:35;;;;;;;5.43;3.90;;;-3.10;99.90;-3.90;97524.00;;;;5041194;28;20431;-72
2021/11/24 04:36:06;;;;;;;6.03;4.40;;;-3.10;99.90;-3.90;97523.00;;;;5044363;28;20443;-72
2021/11/24 04:38:34;;;;;;;4.27;3.80;;;-3.10;99.90;-4.00;97519.00;;;;5036490;28;20438;-72
2021/11/24 04:41:04;;;;;;;6.87;3.83;;;-3.10;99.90;-4.10;97517.00;;;;5047543;28;20510;-71
2021/11/24 04:43:37;;;;;;;7.43;2.90;;;-3.10;99.90;-4.00;97521.00;;;;5049428;28;20521;-72
2021/11/24 04:46:06;;;;;;;6.27;5.00;;;-3.10;99.90;-4.30;97514.00;;;;5048953;28;20741;-72
2021/11/24 04:48:37;;;;;;;3.97;3.50;;;-3.20;99.90;-4.40;97510.00;;;;5042494;28;20493;-73
2021/11/24 04:51:06;;;;;;;4.23;2.97;;;-3.20;99.90;-4.50;97517.00;;;;5049155;28;20450;-72
2021/11/24 04:53:36;;;;;;;6.60;3.97;;;-3.30;99.90;-4.20;97511.00;;;;5048605;28;20437;-72
2021/11/24 04:56:06;;;;;;;4.13;3.40;;;-3.30;99.90;-4.10;97510.00;;;;5040435;28;20427;-72
2021/11/24 04:58:41;;;;;;;5.20;3.80;;;-3.30;99.90;-4.40;97512.00;;;;5042691;28;20451;-72
2021/11/24 05:01:10;;;;;;;6.10;4.00;;;-3.30;99.90;-4.30;97520.00;;;;5040248;28;20555;-72
2021/11/24 05:03:40;;;;;;;7.03;3.70;;;-3.30;99.90;-4.40;97505.00;;;;5048162;28;20423;-72
2021/11/24 05:06:09;;;;;;;4.30;3.90;;;-3.40;99.90;-4.70;97503.00;;;;5037706;28;21305;-72
2021/11/24 05:08:39;;;;;;;4.13;3.67;;;-3.40;99.90;-4.50;97522.00;;;;5047466;28;20964;-71
2021/11/24 05:11:09;;;;;;;4.17;3.33;;;-3.40;99.90;-4.20;97517.00;;;;5048716;28;20992;-71
2021/11/24 05:13:40;;;;;;;5.00;3.33;;;-3.40;99.90;-4.20;97521.00;;;;5048006;28;20432;-72
2021/11/24 05:16:09;;;;;;;4.70;3.00;;;-3.40;99.90;-4.30;97513.00;;;;5044342;28;20424;-72
2021/11/24 05:18:40;;;;;;;3.87;2.63;;;-3.30;99.90;-4.60;97505.00;;;;5045553;28;20446;-73
2021/11/24 05:21:13;;;;;;;3.73;3.30;;;-3.40;99.90;-4.50;97510.00;;;;5043684;28;20451;-71
2021/11/24 05:23:43;;;;;;;5.93;3.80;;;-3.40;99.90;-4.40;97512.00;;;;5047182;28;20530;-76
2021/11/24 05:26:12;;;;;;;8.10;4.33;;;-3.40;99.90;-4.60;97514.00;;;;5048089;28;20870;-72
2021/11/24 05:28:41;;;;;;;5.57;4.37;;;-3.40;99.90;-4.60;97505.00;;;;5045452;28;20450;-72
2021/11/24 05:31:10;;;;;;;3.43;2.90;;;-3.50;99.90;-4.50;97505.00;;;;5043510;28;20839;-72
2021/11/24 05:33:39;;;;;;;4.07;3.03;;;-3.50;99.90;-4.60;97512.00;;;;5036352;28;20836;-71
2021/11/24 05:36:07;;;;;;;5.00;4.03;;;-3.50;99.90;-4.50;97500.00;;;;5045492;28;20443;-70
2021/11/24 05:38:38;;;;;;;5.47;4.00;;;-3.50;99.90;-4.50;97516.00;;;;5066718;28;20449;-70
2021/11/24 05:41:07;;;;;;;3.50;3.20;;;-3.50;99.90;-4.50;97501.00;;;;5067891;28;20446;-70
2021/11/24 05:43:36;;;;;;;4.03;3.20;;;-3.50;99.90;-4.70;97520.00;;;;5068743;28;20419;-70
2021/11/24 05:46:16;;;;;;;4.97;3.57;;;-3.60;99.90;-4.60;97518.00;;;;5073082;28;20953;-70
2021/11/24 05:48:46;;;;;;;5.97;3.63;;;-3.60;99.90;-4.50;97511.00;;;;5067126;28;20983;-71
2021/11/24 05:51:15;;;;;;;2.87;2.47;;;-3.60;99.90;-4.40;97502.00;;;;5066798;28;20513;-71
2021/11/24 05:53:45;;;;;;;3.37;2.77;;;-3.50;99.90;-4.30;97514.00;;;;5067377;28;20422;-71
2021/11/24 05:56:14;;;;;;;4.53;2.97;;;-3.50;99.90;-4.30;97514.00;;;;5066670;28;20465;-71
2021/11/24 05:58:43;;;;;;;3.77;3.00;;;-3.50;99.90;-4.20;97520.00;;;;5066441;28;20469;-71
2021/11/24 06:01:11;;;;;;;3.20;2.90;;;-3.40;99.90;-4.20;97503.00;;;;5056066;28;20561;-71
2021/11/24 06:03:41;;;;;;;4.90;3.27;;;-3.40;99.90;-4.40;97520.00;;;;5061304;28;20975;-71
2021/11/24 06:06:10;;;;;;;4.90;3.70;;;-3.40;99.90;-4.60;97524.00;;;;5057509;28;20881;-70
2021/11/24 06:08:39;;;;;;;3.77;2.40;;;-3.50;99.90;-4.70;97526.00;;;;5065687;28;20508;-72
2021/11/24 06:11:09;;;;;;;5.60;2.43;;;-3.60;99.90;-4.90;97512.00;;;;5063421;28;20452;-71
2021/11/24 06:13:38;;;;;;;4.23;3.53;;;-3.60;99.90;-4.90;97517.00;;;;5063192;28;20466;-72
2021/11/24 06:16:07;;;;;;;4.83;3.60;;;-3.70;99.90;-4.70;97513.00;;;;5066983;28;20434;-71
2021/11/24 06:18:35;;;;;;;4.80;3.97;;;-3.70;99.90;-4.70;97522.00;;;;5066861;28;20438;-72
2021/11/24 06:21:05;;;;;;;6.97;5.43;;;-3.70;99.90;-4.70;97527.00;;;;5066994;28;20934;-70
2021/11/24 06:23:38;;;;;;;8.37;6.20;;;-3.70;99.90;-4.60;97525.00;;;;5062033;28;20481;-69
2021/11/24 06:26:09;;;;;;;5.60;5.10;;;-3.70;99.90;-4.60;97528.00;;;;5066042;28;20933;-69
2021/11/24 06:28:38;;;;;;;6.20;4.50;;;-3.70;99.90;-4.60;97529.00;;;;5068150;28;20981;-69
2021/11/24 06:31:07;;;;;;;5.30;4.27;;;-3.70;99.90;-4.50;97526.00;;;;5063559;28;20454;-71
2021/11/24 06:33:36;;;;;;;5.00;4.03;;;-3.70;99.90;-4.40;97524.00;;;;5063927;28;20949;-72
2021/11/24 06:36:07;;;;;;;53.20;24.33;;;-3.60;99.90;-4.60;97528.00;;;;5064982;28;20549;-71
2021/11/24 06:38:36;;;;;;;4.50;3.10;;;-3.60;99.90;-5.00;97516.00;;;;5063479;28;20474;-73
2021/11/24 06:41:04;;;;;;;3.70;3.10;;;-3.60;99.90;-4.90;97502.00;;;;5077128;28;21315;-72
2021/11/24 06:43:35;;;;;;;7.83;4.97;;;-3.70;99.90;-4.80;97511.00;;;;5066388;28;20472;-68
2021/11/24 06:46:03;;;;;;;5.03;3.80;;;-3.70;99.90;-4.70;97516.00;;;;5071755;28;20455;-69
2021/11/24 06:48:33;;;;;;;5.47;4.10;;;-3.70;99.90;-4.70;97516.00;;;;5065457;28;20508;-72
2021/11/24 06:51:01;;;;;;;4.73;4.03;;;-3.80;99.90;-4.70;97515.00;;;;5065000;28;20435;-72
2021/11/24 06:53:30;;;;;;;3.03;2.47;;;-3.70;99.90;-4.60;97513.00;;;;5062756;28;21522;-69
2021/11/24 06:55:59;;;;;;;4.50;3.30;;;-3.60;99.90;-4.70;97510.00;;;;5063620;28;20435;-71
2021/11/24 06:58:27;;;;;;;3.13;2.50;;;-3.60;99.90;-4.60;97526.00;;;;5065441;28;20472;-71
2021/11/24 07:00:59;;;;;;;2.53;2.33;;;-3.60;99.90;-4.70;97517.00;;;;5060855;28;20434;-71
2021/11/24 07:03:28;;;;;;;3.33;1.77;;;-3.60;99.90;-5.00;97523.00;;;;5064408;28;20995;-70
2021/11/24 07:06:16;;;;;;;1.90;1.57;;;-3.60;99.90;-4.70;97516.00;;;;5065871;28;20434;-69
2021/11/24 07:09:09;;;;;;;3.40;2.83;;;-3.60;99.90;-4.40;97528.00;;;;5057077;28;20836;-70
2021/11/24 07:11:58;;;;;;;4.20;3.73;;;-3.50;99.90;-4.40;97518.00;;;;5066700;28;20909;-71
2021/11/24 07:14:47;;;;;;;2.90;2.20;;;-3.50;99.90;-4.50;97539.00;;;;5065181;28;20438;-70
2021/11/24 07:17:37;;;;;;;5.60;2.50;;;-3.40;99.90;-4.60;97523.00;;;;5052989;28;20973;-70
2021/11/24 07:20:26;;;;;;;4.17;2.87;;;-3.40;99.90;-4.40;97532.00;;;;5060328;28;20429;-71
2021/11/24 07:23:15;;;;;;;2.60;2.40;;;-3.30;99.90;-4.50;97533.00;;;;5063207;28;20414;-70
2021/11/24 07:26:04;;;;;;;2.93;2.63;;;-3.40;99.90;-4.40;97535.00;;;;5064392;28;20429;-71
2021/11/24 07:28:53;;;;;;;2.50;2.17;;;-3.40;99.90;-4.30;97537.00;;;;5058257;28;20844;-72
2021/11/24 07:31:42;;;;;;;5.40;3.13;;;-3.40;99.90;-4.50;97538.00;;;;5063241;28;21223;-71
2021/11/24 07:34:32;;;;;;;1.67;1.53;;;-3.40;99.90;-4.40;97523.00;;;;5064058;28;20433;-71
2021/11/24 07:37:21;;;;;;;2.07;1.97;;;-3.40;99.90;-4.40;97530.00;;;;5065110;28;20433;-71
2021/11/24 07:40:12;;;;;;;2.80;2.57;;;-3.30;99.90;-4.30;97535.00;;;;5064866;28;20957;-72
2021/11/24 07:43:00;;;;;;;4.00;2.83;;;-3.30;99.90;-4.20;97530.00;;;;5062997;28;20455;-70
2021/11/24 07:45:50;;;;;;;6.63;4.40;;;-4.90;99.90;-4.00;97533.00;;;;5062709;28;20409;-71
2021/11/24 07:48:39;;;;;;;2.30;2.20;;;-3.20;99.90;-3.90;97530.00;;;;5062967;28;20527;-71
2021/11/24 07:51:29;;;;;;;5.37;3.73;;;-3.00;99.90;-3.90;97519.00;;;;5064019;28;20438;-71
2021/11/24 07:54:18;;;;;;;4.67;3.87;;;-3.00;99.90;-3.80;97511.00;;;;5063646;28;20449;-70
2021/11/24 07:57:07;;;;;;;5.03;2.73;;;-2.90;99.90;-3.70;97519.00;;;;5060052;28;20449;-71
2021/11/24 07:59:56;;;;;;;5.60;2.97;;;-2.80;99.90;-3.90;97521.00;;;;5058282;28;20836;-70
2021/11/24 08:02:45;;;;;;;4.83;3.50;;;-2.80;99.90;-3.90;97520.00;;;;5062393;28;20431;-71
2021/11/24 08:05:34;;;;;;;3.83;3.47;;;-2.40;99.90;-3.90;97521.00;;;;5061465;28;20480;-71
2021/11/24 08:08:24;;;;;;;11.43;4.30;;;-2.80;99.90;-3.70;97514.00;;;;5066397;28;20477;-72
2021/11/24 08:11:13;;;;;;;4.77;3.80;;;-2.80;99.90;-3.50;97515.00;;;;5063956;28;20807;-71
2021/11/24 08:14:02;;;;;;;3.10;2.80;;;-2.70;99.90;-3.60;97509.00;;;;5066445;28;20422;-70
2021/11/24 08:16:51;;;;;;;9.07;5.03;;;-2.70;99.90;-3.30;97512.00;;;;5066146;28;20429;-71
2021/11/24 08:19:40;;;;;;;5.03;3.83;;;-2.50;99.90;-3.20;97510.00;;;;5064193;28;20982;-71
2021/11/24 08:22:29;;;;;;;8.50;3.40;;;-2.40;99.90;-3.40;97497.00;;;;5068813;28;20442;-71
2021/11/24 08:25:19;;;;;;;2.97;2.50;;;-2.40;99.90;-3.60;97500.00;;;;5068935;28;20804;-71
2021/11/24 08:28:08;;;;;;;4.73;4.23;;;-2.40;99.90;-3.40;97498.00;;;;5070715;28;21037;-71
2021/11/24 08:30:57;;;;;;;4.27;3.63;;;-2.40;99.90;-3.10;97504.00;;;;5068015;28;20445;-71
2021/11/24 08:33:46;;;;;;;6.13;4.27;;;-2.40;99.90;-2.80;97509.00;;;;5066114;28;20891;-70
2021/11/24 08:36:35;;;;;;;8.80;5.27;;;-2.20;99.90;-2.90;97505.00;;;;5072447;28;20415;-71
2021/11/24 08:39:25;;;;;;;8.53;5.23;;;-2.10;99.90;-2.50;97501.00;;;;5068978;28;20439;-71
2021/11/24 08:42:15;;;;;;;9.23;4.53;;;-2.00;99.90;-2.50;97501.00;;;;5063458;28;21211;-71
2021/11/24 08:45:07;;;;;;;3.50;3.20;;;-1.80;99.90;-2.30;97505.00;;;;5068778;28;20414;-70
2021/11/24 08:47:56;;;;;;;11.10;5.60;;;-1.70;99.90;-2.20;97502.00;;;;5068041;28;20434;-70
2021/11/24 08:50:46;;;;;;;5.53;4.73;;;-1.50;99.90;-2.10;97502.00;;;;5068303;28;20430;-71
2021/11/24 08:53:35;;;;;;;9.00;5.07;;;-1.40;99.90;-2.00;97497.00;;;;5047324;28;20417;-70
2021/11/24 08:56:24;;;;;;;6.93;5.70;;;-1.30;99.90;-1.70;97510.00;;;;5065545;28;20514;-71
2021/11/24 08:59:14;;;;;;;4.90;4.00;;;-1.20;99.90;-1.60;97505.00;;;;5062341;28;20949;-70
2021/11/24 09:02:03;;;;;;;11.90;4.57;;;-1.10;99.90;-1.60;97523.00;;;;5067286;28;20449;-70
2021/11/24 09:04:52;;;;;;;8.63;5.27;;;-1.00;99.90;-1.50;97498.00;;;;5066532;28;20429;-71
2021/11/24 09:07:41;;;;;;;11.03;8.37;;;-0.90;99.90;-1.00;97510.00;;;;5067607;28;20438;-70
2021/11/24 09:10:31;;;;;;;6.83;4.90;;;-0.70;99.90;-1.00;97505.00;;;;5066886;28;20440;-71
2021/11/24 09:13:20;;;;;;;9.23;5.03;;;-0.50;99.90;-0.90;97519.00;;;;5068445;28;20772;-73
2021/11/24 09:16:10;;;;;;;5.63;4.20;;;-0.40;99.90;-0.80;97510.00;;;;5065345;28;20423;-72
2021/11/24 09:18:59;;;;;;;5.23;4.70;;;-0.30;99.90;-0.60;97498.00;;;;5065209;28;20421;-72
2021/11/24 09:21:49;;;;;;;5.93;4.60;;;-0.20;99.90;-0.60;97492.00;;;;5060870;28;20431;-73
2021/11/24 09:24:40;;;;;;;7.73;5.20;;;-0.10;99.90;-0.50;97499.00;;;;5067113;28;20422;-72
2021/11/24 09:27:31;;;;;;;6.67;4.57;;;0.00;99.90;-0.40;97492.00;;;;5067435;28;20418;-72
2021/11/24 09:30:20;;;;;;;10.60;5.27;;;0.10;99.90;-0.10;97502.00;;;;5066529;28;20462;-71
2021/11/24 09:33:11;;;;;;;7.60;4.17;;;0.20;99.90;-0.30;97484.00;;;;5069006;28;20455;-72
2021/11/24 09:36:00;;;;;;;7.53;4.63;;;0.40;99.90;0.10;97485.00;;;;5060998;28;20419;-72
2021/11/24 09:38:50;;;;;;;8.67;4.67;;;0.50;99.90;0.30;97484.00;;;;5065481;28;20421;-71
2021/11/24 09:41:45;;;;;;;8.00;5.10;;;0.70;99.90;0.40;97476.00;;;;5068121;28;20442;-71
2021/11/24 09:44:34;;;;;;;8.17;5.03;;;0.80;99.90;0.50;97475.00;;;;5067162;28;20414;-71
2021/11/24 09:47:26;;;;;;;8.63;5.73;;;0.90;99.90;0.50;97475.00;;;;5066457;28;20457;-73
2021/11/24 09:50:22;;;;;;;6.83;4.97;;;1.00;99.90;0.70;97468.00;;;;5066953;28;20470;-71
2021/11/24 09:53:14;;;;;;;7.23;5.00;;;1.10;99.90;0.90;97470.00;;;;5062641;28;20839;-71
2021/11/24 09:56:04;;;;;;;7.70;5.87;;;1.20;99.90;1.00;97465.00;;;;5072946;28;20940;-72
2021/11/24 09:58:53;;;;;;;7.33;5.23;;;1.30;99.90;1.10;97464.00;;;;5065872;28;20426;-71
2021/11/24 10:01:42;;;;;;;7.87;5.03;;;1.50;99.90;1.20;97460.00;;;;5062648;28;20454;-71
2021/11/24 10:04:31;;;;;;;11.10;5.70;;;1.60;99.90;1.50;97452.00;;;;5068635;28;20446;-71
2021/11/24 10:07:21;;;;;;;6.87;5.23;;;1.70;99.90;1.70;97460.00;;;;5065696;28;20439;-71
2021/11/24 10:10:11;;;;;;;7.13;4.27;;;1.90;99.90;1.80;97446.00;;;;5068244;28;20462;-71
2021/11/24 10:13:00;;;;;;;6.80;4.70;;;2.20;99.90;2.20;97452.00;;;;5067177;28;20439;-70
2021/11/24 10:15:52;;;;;;;8.97;4.37;;;2.70;99.90;2.80;97455.00;;;;5065271;28;20955;-73
2021/11/24 10:18:41;;;;;;;9.17;4.00;;;3.40;99.90;3.30;97450.00;;;;5067355;28;20427;-72
2021/11/24 10:21:31;;;;;;;7.57;4.53;;;4.00;99.90;3.60;97437.00;;;;5060198;28;20454;-73
2021/11/24 10:24:29;;;;;;;9.07;5.03;;;4.60;99.90;4.10;97448.00;;;;5068116;28;20192;-73
2021/11/24 10:27:36;;;;;;;4.17;3.77;;;5.20;99.90;4.70;97452.00;;;;5054870;28;20200;-73
2021/11/24 10:30:41;;;;;;;14.27;5.63;;;5.70;99.90;5.20;97439.00;;;;5063761;28;20222;-73
2021/11/24 10:33:32;;;;;;;6.43;4.90;;;6.20;99.90;5.70;97438.00;;;;5065555;28;20207;-73
2021/11/24 10:36:21;;;;;;;6.07;4.53;;;6.60;99.90;5.80;97425.00;;;;5064945;28;20237;-73
2021/11/24 10:39:10;;;;;;;5.73;3.60;;;7.00;99.90;6.20;97425.00;;;;5064154;28;20687;-74
2021/11/24 10:42:13;;;;;;;4.47;3.67;;;7.30;99.90;7.00;97420.00;;;;5065067;28;20224;-73
2021/11/24 10:45:13;;;;;;;6.63;4.87;;;7.60;99.90;7.30;97419.00;;;;5064406;28;20211;-73
2021/11/24 10:48:02;;;;;;;6.83;3.70;;;8.10;99.90;7.80;97416.00;;;;5062030;28;20227;-73
2021/11/24 10:50:50;;;;;;;6.60;3.97;;;8.50;99.90;8.80;97402.00;;;;5060888;28;20216;-75
2021/11/24 10:53:39;;;;;;;6.80;4.30;;;8.80;99.90;9.10;97410.00;;;;5063612;28;20200;-74
2021/11/24 10:56:28;;;;;;;5.27;4.17;;;9.30;97.90;9.60;97400.00;;;;5067667;28;20215;-74
2021/11/24 10:59:20;;;;;;;6.40;4.10;;;9.70;95.60;10.00;97390.00;;;;5066478;28;20195;-75
2021/11/24 11:02:28;;;;;;;5.30;3.80;;;10.10;94.00;9.90;97382.00;;;;5066480;28;20239;-74
2021/11/24 11:05:21;;;;;;;8.10;4.67;;;10.50;89.30;10.10;97382.00;;;;5056331;28;20741;-74
2021/11/24 11:08:12;;;;;;;5.83;4.03;;;10.70;85.00;10.30;97380.00;;;;5050768;28;20201;-75
2021/11/24 11:11:05;;;;;;;4.63;3.70;;;10.90;83.10;10.70;97375.00;;;;5051860;28;20219;-75
2021/11/24 11:14:16;;;;;;;6.30;3.87;;;11.00;82.90;10.90;97369.00;;;;5067049;28;20215;-75
2021/11/24 11:17:06;;;;;;;6.67;3.83;;;11.30;80.30;11.00;97365.00;;;;5044414;28;20200;-78
2021/11/24 11:19:56;;;;;;;9.60;4.10;;;11.60;76.50;10.90;97366.00;;;;5066946;28;20269;-76
2021/11/24 11:22:45;;;;;;;10.13;5.00;;;12.10;73.10;12.10;97371.00;;;;5062630;28;20222;-76
2021/11/24 11:25:35;;;;;;;4.73;3.77;;;12.30;73.60;12.30;97361.00;;;;5045744;28;20211;-76
2021/11/24 11:28:28;;;;;;;6.73;4.17;;;12.60;72.50;11.40;97355.00;;;;5052829;28;20208;-76
2021/11/24 11:31:19;;;;;;;9.93;4.47;;;12.80;69.60;12.50;97351.00;;;;5052460;28;20236;-75
2021/11/24 11:34:14;;;;;;;16.30;5.23;;;13.00;66.80;12.30;97343.00;;;;5062268;28;20205;-74
2021/11/24 11:37:04;;;;;;;7.93;4.93;;;13.30;65.10;12.50;97345.00;;;;5063654;28;20218;-77
2021/11/24 11:39:53;;;;;;;9.50;3.80;;;13.60;63.50;12.90;97344.00;;;;5053869;28;20201;-75